Time;durP1;ratioP1;P1;durP2;ratioP2;P2;SDS_P1;SDS_P2;PMS_P1;PMS_P2;Temp;Humidity;BMP_temperature;BMP_pressure;BME280_temperature;BME280_humidity;BME280_pressure;Samples;Min_cycle;Max_cycle;Signal;HPM_P1;HPM_P2
2023/05/08 00:02:30;;;;;;;23.00;16.10;;;;;;;1.09;75.92;101108.00;218682;1254;140549;-64
2023/05/08 00:07:36;;;;;;;17.40;12.70;;;;;;;1.02;76.18;101108.95;218107;1254;140271;-64
2023/05/08 00:12:40;;;;;;;17.60;11.40;;;;;;;0.94;76.00;101107.56;218300;1254;140038;-63
2023/05/08 00:17:44;;;;;;;21.10;15.00;;;;;;;0.83;75.74;101107.91;218629;1254;154363;-64
2023/05/08 00:22:47;;;;;;;26.30;15.80;;;;;;;0.74;76.15;101107.49;218040;1257;139663;-63
2023/05/08 00:27:51;;;;;;;27.90;14.40;;;;;;;0.69;76.40;101108.23;219236;1254;140178;-65
2023/05/08 00:32:55;;;;;;;24.40;13.80;;;;;;;0.66;76.51;101111.31;217835;1254;139975;-65
2023/05/08 00:38:00;;;;;;;25.20;14.40;;;;;;;0.62;76.45;101113.64;218590;1254;142394;-65
2023/05/08 00:43:04;;;;;;;20.00;14.80;;;;;;;0.54;76.51;101116.80;217913;1254;140479;-64
2023/05/08 00:48:24;;;;;;;24.30;13.90;;;;;;;0.46;76.83;101111.94;218918;1257;140615;-66
2023/05/08 00:53:39;;;;;;;20.10;12.00;;;;;;;0.38;76.37;101118.57;217989;1254;140203;-66
2023/05/08 00:58:44;;;;;;;22.30;14.20;;;;;;;0.29;76.89;101121.81;219169;1254;140123;-63
2023/05/08 01:03:47;;;;;;;16.00;11.70;;;;;;;0.28;77.09;101130.97;219632;1254;140261;-65
2023/05/08 01:08:51;;;;;;;19.20;13.20;;;;;;;0.29;77.43;101129.51;219188;1258;140764;-64
2023/05/08 01:14:26;;;;;;;25.10;12.90;;;;;;;0.30;77.40;101137.15;220741;1254;140425;-64
2023/05/08 01:19:56;;;;;;;17.80;10.90;;;;;;;0.29;77.39;101139.66;220673;1254;140859;-66
2023/05/08 01:25:37;;;;;;;22.30;12.80;;;;;;;0.27;77.18;101150.98;219933;1257;141296;-69
2023/05/08 01:30:52;;;;;;;;;;;;;;;0.25;77.24;101149.42;218943;1255;140051;-65
2023/05/08 01:36:10;;;;;;;15.50;9.20;;;;;;;0.17;77.24;101149.58;218260;1257;126434;-65
2023/05/08 01:41:17;;;;;;;14.60;11.70;;;;;;;0.13;77.56;101150.69;218048;1254;140458;-64
2023/05/08 01:46:24;;;;;;;23.50;12.90;;;;;;;0.08;77.64;101148.27;218169;1259;140456;-64
2023/05/08 01:51:33;;;;;;;22.50;14.10;;;;;;;0.01;77.45;101144.69;219834;1254;140898;-65
2023/05/08 01:56:39;;;;;;;23.10;14.30;;;;;;;-0.02;77.62;101148.34;217938;1258;140202;-64
2023/05/08 02:01:43;;;;;;;20.10;14.20;;;;;;;-0.06;77.91;101146.73;218080;1254;140335;-65
2023/05/08 02:06:50;;;;;;;23.70;15.30;;;;;;;-0.13;77.71;101150.60;218410;1256;142494;-64
2023/05/08 02:11:56;;;;;;;22.10;12.80;;;;;;;-0.19;78.03;101153.23;217979;1260;142595;-65
2023/05/08 02:17:02;;;;;;;31.60;17.80;;;;;;;-0.22;78.32;101153.69;218697;1254;141313;-65
2023/05/08 02:22:07;;;;;;;28.40;19.40;;;;;;;-0.21;78.46;101155.85;218523;1254;140986;-65
2023/05/08 02:27:11;;;;;;;30.00;17.30;;;;;;;-0.22;78.48;101158.44;218165;1259;141205;-65
2023/05/08 02:32:18;;;;;;;23.30;15.70;;;;;;;-0.21;78.56;101162.70;217909;1257;140348;-65
2023/05/08 02:37:23;;;;;;;16.90;11.30;;;;;;;-0.21;78.82;101168.45;217867;1260;140089;-65
2023/05/08 02:42:27;;;;;;;20.20;13.90;;;;;;;-0.23;78.70;101173.73;218014;1257;140237;-64
2023/05/08 02:47:46;;;;;;;19.80;12.70;;;;;;;-0.28;78.78;101179.49;218137;1259;140427;-64
2023/05/08 02:53:02;;;;;;;19.00;12.70;;;;;;;-0.32;78.81;101172.92;218545;1257;140818;-65
2023/05/08 02:58:19;;;;;;;22.50;12.60;;;;;;;-0.39;78.68;101179.55;217604;1260;140368;-65
2023/05/08 03:03:26;;;;;;;18.90;13.10;;;;;;;-0.41;78.88;101180.98;218494;1257;140503;-65
2023/05/08 03:08:33;;;;;;;15.30;11.70;;;;;;;-0.41;79.05;101177.44;217834;1258;140739;-64
2023/05/08 03:13:40;;;;;;;17.70;12.50;;;;;;;-0.39;79.28;101170.46;220451;1257;140309;-65
2023/05/08 03:18:53;;;;;;;18.30;12.30;;;;;;;-0.36;79.08;101170.21;220397;1256;141061;-65
2023/05/08 03:23:59;;;;;;;18.10;13.00;;;;;;;-0.30;79.06;101171.33;219843;1259;140922;-65
2023/05/08 03:29:04;;;;;;;17.00;11.80;;;;;;;-0.11;78.86;101172.48;219326;1259;141485;-66
2023/05/08 03:34:11;;;;;;;17.40;13.40;;;;;;;-0.00;78.90;101174.01;219505;1256;140408;-66
2023/05/08 03:39:15;;;;;;;14.90;10.20;;;;;;;0.21;79.15;101167.10;217910;1258;140813;-65
2023/05/08 03:44:19;;;;;;;16.30;10.80;;;;;;;0.47;79.04;101170.13;219135;1254;143280;-65
2023/05/08 03:49:25;;;;;;;18.70;11.40;;;;;;;0.64;78.55;101174.63;218208;1256;140129;-65
2023/05/08 03:54:29;;;;;;;14.30;10.90;;;;;;;0.85;78.48;101173.02;218041;1258;140814;-65
2023/05/08 03:59:38;;;;;;;15.90;11.70;;;;;;;0.97;78.74;101180.64;218589;1257;141289;-65
2023/05/08 04:04:44;;;;;;;14.30;10.10;;;;;;;1.24;79.03;101195.05;217996;1254;140237;-65
2023/05/08 04:10:12;;;;;;;17.10;10.10;;;;;;;2.03;78.59;101193.25;218888;1257;139953;-64
2023/05/08 04:15:20;;;;;;;;;;;;;;;3.88;77.17;101195.20;218053;1258;141179;-65
2023/05/08 04:20:26;;;;;;;13.40;9.50;;;;;;;5.71;75.30;101192.75;218210;1254;126043;-65
2023/05/08 04:25:32;;;;;;;16.60;8.80;;;;;;;6.23;73.94;101197.09;217903;1255;140296;-66
2023/05/08 04:30:35;;;;;;;10.50;7.70;;;;;;;6.31;73.17;101204.44;217836;1257;140286;-66
2023/05/08 04:35:37;;;;;;;7.70;6.80;;;;;;;7.48;72.00;101210.05;218223;1257;139789;-66
2023/05/08 04:40:40;;;;;;;8.90;6.20;;;;;;;7.34;71.78;101213.81;217894;1254;140495;-64
2023/05/08 04:45:44;;;;;;;8.00;7.20;;;;;;;6.95;71.63;101216.29;217980;1260;139621;-65
2023/05/08 04:50:47;;;;;;;8.10;6.70;;;;;;;6.50;72.09;101218.94;218963;1259;140776;-65
2023/05/08 04:55:51;;;;;;;9.30;6.20;;;;;;;6.18;72.54;101232.42;218858;1254;141642;-64
2023/05/08 05:00:55;;;;;;;9.10;5.80;;;;;;;5.98;72.98;101243.85;220019;1254;140054;-65
2023/05/08 05:05:59;;;;;;;7.60;6.50;;;;;;;5.83;73.64;101247.08;219315;1254;141665;-65
2023/05/08 05:11:02;;;;;;;8.30;6.00;;;;;;;5.78;74.01;101253.41;220508;1254;140060;-66
2023/05/08 05:16:06;;;;;;;8.40;5.20;;;;;;;6.97;73.47;101252.05;218943;1254;139932;-66
2023/05/08 05:21:10;;;;;;;8.80;5.60;;;;;;;10.48;70.84;101246.20;218202;1258;139720;-65
2023/05/08 05:26:14;;;;;;;5.00;4.50;;;;;;;12.45;68.98;101244.29;218805;1254;142015;-64
2023/05/08 05:31:18;;;;;;;4.10;3.80;;;;;;;16.02;64.45;101242.33;219513;1254;141214;-66
2023/05/08 05:36:22;;;;;;;6.40;5.00;;;;;;;18.63;61.61;101244.75;218288;1254;139910;-67
2023/05/08 05:41:27;;;;;;;5.40;4.50;;;;;;;20.60;56.69;101242.56;217756;1259;140278;-67
2023/05/08 05:46:31;;;;;;;7.30;4.40;;;;;;;21.85;54.29;101249.56;220835;1254;139441;-67
2023/05/08 05:51:35;;;;;;;4.70;4.00;;;;;;;20.40;53.58;101258.43;220672;1254;142619;-70
2023/05/08 05:56:39;;;;;;;4.50;3.30;;;;;;;20.79;51.27;101255.84;218197;1254;138998;-66
2023/05/08 06:01:41;;;;;;;4.10;3.80;;;;;;;19.82;50.12;101261.11;218000;1254;139167;-66
2023/05/08 06:06:45;;;;;;;3.40;3.10;;;;;;;18.68;51.25;101266.86;218022;1256;139655;-67
2023/05/08 06:11:50;;;;;;;4.70;3.70;;;;;;;17.37;51.91;101270.83;218272;1257;139698;-69
2023/05/08 06:16:55;;;;;;;5.80;3.80;;;;;;;16.51;52.38;101273.90;218558;1256;139125;-70
2023/05/08 06:22:00;;;;;;;4.00;3.60;;;;;;;15.94;52.55;101274.21;217928;1254;139158;-71
2023/05/08 06:27:03;;;;;;;3.40;3.20;;;;;;;14.97;52.96;101277.90;217929;1254;139543;-66
2023/05/08 06:32:07;;;;;;;4.60;3.50;;;;;;;14.22;53.51;101289.77;218126;1257;140907;-67
2023/05/08 06:37:11;;;;;;;3.20;2.90;;;;;;;13.62;53.83;101292.08;217969;1257;140777;-69
2023/05/08 06:42:14;;;;;;;7.90;2.90;;;;;;;13.28;54.70;101295.29;217937;1260;139123;-69
2023/05/08 06:47:19;;;;;;;2.90;2.70;;;;;;;13.25;53.91;101300.41;218070;1257;150680;-67
2023/05/08 06:52:24;;;;;;;2.70;2.30;;;;;;;13.98;54.17;101298.51;218605;1257;140519;-68
2023/05/08 06:57:29;;;;;;;3.10;2.90;;;;;;;14.81;53.05;101302.08;220539;1257;139846;-68
2023/05/08 07:02:32;;;;;;;3.00;2.60;;;;;;;16.39;52.06;101296.47;220688;1256;140280;-65
2023/05/08 07:07:35;;;;;;;3.00;2.80;;;;;;;17.55;51.00;101299.33;220501;1254;139952;-66
2023/05/08 07:12:39;;;;;;;6.70;2.50;;;;;;;18.38;50.73;101305.90;218167;1259;139701;-67
2023/05/08 07:17:43;;;;;;;3.80;2.80;;;;;;;19.15;50.36;101305.79;219284;1256;139601;-68
2023/05/08 07:22:46;;;;;;;3.60;3.30;;;;;;;19.65;49.63;101303.84;219796;1254;139937;-68
2023/05/08 07:27:49;;;;;;;5.30;3.30;;;;;;;19.78;48.42;101304.72;218559;1260;139951;-67
2023/05/08 07:32:52;;;;;;;3.80;2.20;;;;;;;19.20;47.45;101303.52;219876;1256;140095;-66
2023/05/08 07:37:56;;;;;;;4.70;3.30;;;;;;;18.93;47.85;101304.52;218158;1257;140093;-67
2023/05/08 07:43:00;;;;;;;2.60;2.40;;;;;;;18.79;47.29;101312.70;218246;1254;139613;-65
2023/05/08 07:48:04;;;;;;;1.70;1.60;;;;;;;18.28;46.92;101309.33;218785;1257;139981;-66
2023/05/08 07:53:06;;;;;;;3.80;3.30;;;;;;;18.14;46.73;101309.77;217841;1254;140332;-67
2023/05/08 07:58:09;;;;;;;3.40;3.20;;;;;;;17.83;47.15;101310.35;217989;1254;139940;-65
2023/05/08 08:03:13;;;;;;;3.90;2.40;;;;;;;17.94;46.90;101313.45;218088;1255;245308;-69
2023/05/08 08:08:16;;;;;;;3.40;3.00;;;;;;;17.60;46.20;101310.30;218080;1254;140451;-68
2023/05/08 08:13:19;;;;;;;2.60;2.40;;;;;;;17.58;46.90;101309.13;218423;1254;140049;-68
2023/05/08 08:18:22;;;;;;;3.10;2.70;;;;;;;17.56;46.61;101305.81;217956;1257;139433;-67
2023/05/08 08:23:25;;;;;;;5.70;3.80;;;;;;;17.60;46.48;101303.61;217871;1259;139222;-67
2023/05/08 08:28:27;;;;;;;4.80;3.70;;;;;;;17.32;45.57;101304.08;218599;1255;139498;-68
2023/05/08 08:33:30;;;;;;;3.70;3.30;;;;;;;17.20;45.71;101291.06;219526;1254;140454;-67
2023/05/08 08:38:33;;;;;;;2.60;2.40;;;;;;;17.09;45.92;101293.77;218194;1254;139898;-68
2023/05/08 08:43:38;;;;;;;3.70;2.80;;;;;;;16.85;45.12;101287.79;218723;1254;140241;-67
2023/05/08 08:48:46;;;;;;;5.20;4.40;;;;;;;16.50;45.64;101284.32;217692;1256;140127;-69
2023/05/08 08:53:53;;;;;;;2.30;2.20;;;;;;;16.78;45.71;101281.72;218314;1256;140036;-66
2023/05/08 08:58:59;;;;;;;3.30;2.50;;;;;;;17.03;45.98;101278.18;220540;1254;140752;-64
2023/05/08 09:04:01;;;;;;;3.90;3.30;;;;;;;16.79;44.44;101277.84;220783;1254;140184;-65
2023/05/08 09:09:05;;;;;;;3.60;3.30;;;;;;;16.73;45.12;101279.42;217826;1257;139743;-70
2023/05/08 09:14:08;;;;;;;3.80;3.50;;;;;;;16.80;45.43;101278.98;218928;1255;139957;-69
2023/05/08 09:19:14;;;;;;;5.40;4.00;;;;;;;17.04;45.56;101278.36;218208;1254;141034;-68
2023/05/08 09:24:21;;;;;;;3.90;3.60;;;;;;;17.02;45.08;101274.98;218604;1254;139841;-68
2023/05/08 09:29:24;;;;;;;;;;;;;;;17.12;44.75;101274.21;218615;1254;139925;-70
2023/05/08 09:34:32;;;;;;;4.00;3.60;;;;;;;16.98;44.65;101277.75;218226;1259;126106;-70
2023/05/08 09:39:35;;;;;;;18.70;4.50;;;;;;;16.81;44.59;101275.68;217717;1259;139389;-65
2023/05/08 09:44:52;;;;;;;4.30;3.70;;;;;;;16.48;43.98;101276.37;218633;1256;140797;-68
2023/05/08 09:50:09;;;;;;;7.80;3.80;;;;;;;16.38;44.58;101267.38;217818;1254;139453;-68
2023/05/08 09:55:14;;;;;;;4.40;4.00;;;;;;;16.67;44.40;101271.63;218321;1256;140490;-79
2023/05/08 10:00:18;;;;;;;3.30;3.00;;;;;;;16.88;45.07;101262.21;218630;1254;140012;-71
2023/05/08 10:05:30;;;;;;;4.80;3.20;;;;;;;16.90;44.27;101263.86;219236;1256;140617;-70
2023/05/08 10:10:37;;;;;;;4.00;3.30;;;;;;;16.32;43.90;101264.70;218639;1257;139801;-69
2023/05/08 10:15:52;;;;;;;7.60;3.40;;;;;;;16.63;43.79;101263.63;217803;1256;141112;-68
2023/05/08 10:21:04;;;;;;;3.30;2.90;;;;;;;16.80;42.90;101257.16;219149;1254;140155;-69
2023/05/08 10:26:15;;;;;;;5.20;2.30;;;;;;;16.91;43.19;101242.29;217953;1257;139909;-68
2023/05/08 10:31:21;;;;;;;3.00;2.80;;;;;;;17.23;43.50;101250.33;217716;1257;140293;-68
2023/05/08 10:36:26;;;;;;;2.70;2.50;;;;;;;17.42;42.70;101247.16;218233;1256;140432;-69
2023/05/08 10:41:36;;;;;;;8.80;3.40;;;;;;;17.42;42.37;101242.85;218776;1256;139689;-68
2023/05/08 10:47:21;;;;;;;6.30;3.10;;;;;;;17.57;41.88;101244.93;217214;1257;2821252;-69
2023/05/08 10:52:46;;;;;;;2.40;2.20;;;;;;;17.58;42.13;101232.02;219050;1254;141297;-68
2023/05/08 10:58:05;;;;;;;3.60;2.70;;;;;;;17.71;41.76;101235.88;218660;1256;139093;-67
2023/05/08 11:03:09;;;;;;;2.70;2.50;;;;;;;17.76;41.58;101233.05;217883;1258;139805;-68
2023/05/08 11:08:49;;;;;;;5.30;3.40;;;;;;;17.68;40.57;101228.47;220227;1256;140111;-68
2023/05/08 11:14:07;;;;;;;3.00;2.40;;;;;;;17.30;40.04;101227.70;218476;1254;141086;-68
2023/05/08 11:19:27;;;;;;;3.70;2.30;;;;;;;17.21;40.53;101229.48;219149;1256;139158;-67
2023/05/08 11:24:35;;;;;;;4.50;2.30;;;;;;;17.32;40.32;101213.99;218804;1256;140289;-67
2023/05/08 11:29:39;;;;;;;;;;;;;;;17.13;40.41;101217.96;218366;1256;139446;-69
2023/05/08 11:34:42;;;;;;;3.30;3.00;;;;;;;17.15;40.39;101216.27;219044;1256;125480;-70
2023/05/08 11:39:50;;;;;;;6.40;2.70;;;;;;;17.14;40.20;101218.37;217851;1257;140554;-70
2023/05/08 11:45:09;;;;;;;3.20;2.90;;;;;;;17.17;40.08;101207.36;217775;1256;153480;-70
2023/05/08 11:50:14;;;;;;;3.00;2.50;;;;;;;17.26;40.39;101204.23;218018;1255;139221;-68
2023/05/08 11:55:19;;;;;;;2.40;2.30;;;;;;;17.42;40.19;101202.52;218166;1254;139067;-68
2023/05/08 12:00:22;;;;;;;5.40;2.20;;;;;;;17.45;39.77;101194.70;218148;1254;139409;-68
2023/05/08 12:05:27;;;;;;;4.70;3.50;;;;;;;17.41;39.77;101196.15;218185;1254;140324;-69
2023/05/08 12:10:30;;;;;;;3.10;2.80;;;;;;;17.41;39.91;101186.98;218589;1254;140449;-68
2023/05/08 12:15:33;;;;;;;5.40;2.50;;;;;;;17.48;39.65;101189.40;218083;1254;139221;-68
2023/05/08 12:20:38;;;;;;;4.10;2.30;;;;;;;17.35;39.27;101185.85;218215;1254;139150;-68
2023/05/08 12:25:41;;;;;;;8.10;2.70;;;;;;;17.24;39.27;101180.60;218773;1254;140060;-69
2023/05/08 12:30:48;;;;;;;3.30;2.50;;;;;;;16.89;39.22;101187.31;218051;1259;140023;-67
2023/05/08 12:35:52;;;;;;;;;;;;;;;16.60;39.30;101175.52;218302;1254;140338;-67
2023/05/08 12:40:56;;;;;;;2.70;2.10;;;;;;;16.58;39.59;101173.08;218491;1257;125628;-68
2023/05/08 12:45:59;;;;;;;5.10;3.10;;;;;;;16.74;39.51;101178.20;218860;1256;140056;-68
2023/05/08 12:51:04;;;;;;;2.60;2.40;;;;;;;16.49;39.37;101177.95;219015;1258;139235;-69
2023/05/08 12:56:07;;;;;;;2.90;2.70;;;;;;;16.38;39.89;101172.02;220455;1254;142037;-70
2023/05/08 13:01:12;;;;;;;3.40;2.90;;;;;;;16.35;39.25;101171.40;220509;1255;140300;-68
2023/05/08 13:06:20;;;;;;;2.50;2.30;;;;;;;16.27;39.34;101158.77;219043;1254;139285;-68
2023/05/08 13:11:30;;;;;;;5.80;2.70;;;;;;;16.23;39.16;101159.30;218879;1254;139093;-68
2023/05/08 13:16:50;;;;;;;3.30;2.60;;;;;;;16.16;39.84;101159.49;219402;1256;139839;-68
2023/05/08 13:21:58;;;;;;;4.90;1.80;;;;;;;16.41;40.07;101157.91;218053;1255;139637;-68
2023/05/08 13:27:06;;;;;;;2.90;2.70;;;;;;;16.44;39.32;101152.29;218584;1254;141115;-69
2023/05/08 13:32:11;;;;;;;2.90;2.70;;;;;;;16.43;39.54;101144.94;218295;1254;140006;-69
2023/05/08 13:37:20;;;;;;;5.60;2.80;;;;;;;16.46;39.42;101147.58;218610;1257;139805;-69
2023/05/08 13:42:29;;;;;;;3.30;3.00;;;;;;;16.50;39.85;101143.06;218066;1258;140393;-68
2023/05/08 13:47:32;;;;;;;2.50;2.30;;;;;;;16.51;39.54;101127.64;218061;1254;139816;-68
2023/05/08 13:52:39;;;;;;;5.70;2.20;;;;;;;16.47;39.49;101132.37;218585;1256;139211;-68
2023/05/08 13:57:43;;;;;;;3.00;2.20;;;;;;;16.37;39.40;101126.40;218433;1258;140672;-67
2023/05/08 14:02:46;;;;;;;6.40;2.60;;;;;;;16.26;38.91;101130.10;218540;1254;139480;-68
2023/05/08 14:07:55;;;;;;;2.10;1.90;;;;;;;16.14;38.94;101120.67;218545;1256;140516;-69
2023/05/08 14:17:23;;;;;;;3.20;2.70;;;;;;;16.13;39.29;101120.52;214647;1295;683504;-69
2023/05/08 14:22:26;;;;;;;2.10;1.90;;;;;;;16.24;39.62;101112.72;216956;1270;139207;-68
2023/05/08 14:27:29;;;;;;;2.60;2.40;;;;;;;16.36;39.56;101126.42;217792;1259;351726;-67
2023/05/08 14:32:33;;;;;;;3.30;2.80;;;;;;;16.15;39.14;101124.17;217323;1262;138737;-67
2023/05/08 14:37:37;;;;;;;3.20;2.30;;;;;;;16.15;39.31;101123.17;217447;1260;139481;-67
2023/05/08 14:42:52;;;;;;;4.60;2.30;;;;;;;16.11;39.53;101118.98;218625;1259;138659;-68
2023/05/08 14:47:57;;;;;;;5.60;2.40;;;;;;;16.05;39.37;101118.86;217435;1262;138813;-67
2023/05/08 14:53:02;;;;;;;3.70;2.40;;;;;;;15.95;38.93;101120.41;218379;1263;138734;-68
2023/05/08 14:58:12;;;;;;;6.80;2.50;;;;;;;15.90;38.86;101123.27;218521;1259;138083;-68
2023/05/08 15:03:18;;;;;;;2.50;2.30;;;;;;;15.90;38.92;101118.87;219909;1257;139677;-68
2023/05/08 15:08:24;;;;;;;2.00;1.60;;;;;;;15.88;39.53;101111.67;218152;1258;139227;-68
2023/05/08 15:13:28;;;;;;;2.20;1.90;;;;;;;15.72;39.00;101117.01;218291;1259;139293;-68
2023/05/08 15:18:38;;;;;;;4.10;1.70;;;;;;;15.65;39.11;101121.30;218420;1260;140224;-68
2023/05/08 15:23:43;;;;;;;2.30;2.00;;;;;;;15.70;38.81;101114.66;218273;1260;139844;-68
2023/05/08 15:28:47;;;;;;;2.20;2.10;;;;;;;15.82;38.89;101113.31;217687;1259;138624;-68
2023/05/08 15:33:52;;;;;;;2.50;1.90;;;;;;;15.91;38.69;101103.98;217753;1262;138374;-68
2023/05/08 15:38:56;;;;;;;2.00;1.90;;;;;;;15.99;38.71;101094.64;218065;1257;138858;-68
2023/05/08 15:44:04;;;;;;;2.80;2.50;;;;;;;15.79;38.89;101102.10;217885;1257;138803;-68
2023/05/08 15:49:09;;;;;;;9.90;2.70;;;;;;;15.43;38.63;101101.13;217909;1262;139268;-67
2023/05/08 15:54:15;;;;;;;4.70;2.30;;;;;;;15.10;39.05;101099.02;217698;1257;139309;-67
2023/05/08 15:59:25;;;;;;;3.00;2.30;;;;;;;14.83;39.26;101098.41;217807;1257;138470;-67
2023/05/08 16:04:31;;;;;;;5.20;2.10;;;;;;;14.72;39.60;101101.55;217928;1258;139134;-67
2023/05/08 16:09:37;;;;;;;8.50;1.60;;;;;;;14.66;39.77;101100.61;218477;1257;138491;-67
2023/05/08 16:14:41;;;;;;;3.40;2.30;;;;;;;14.66;39.75;101094.91;217649;1257;139683;-68
2023/05/08 16:19:48;;;;;;;4.40;2.20;;;;;;;14.66;39.43;101086.86;217553;1260;139219;-70
2023/05/08 16:24:54;;;;;;;1.80;1.30;;;;;;;14.51;39.66;101084.47;218162;1257;139390;-68
2023/05/08 16:29:59;;;;;;;2.00;1.80;;;;;;;14.39;39.65;101085.85;217378;1262;139356;-68
2023/05/08 16:35:07;;;;;;;3.90;2.60;;;;;;;14.31;39.97;101084.23;220146;1260;138540;-69
2023/05/08 16:40:11;;;;;;;3.00;2.80;;;;;;;14.27;39.96;101084.92;218154;1258;139966;-68
2023/05/08 16:45:17;;;;;;;3.00;2.00;;;;;;;14.27;39.65;101086.74;218624;1260;221417;-68
2023/05/08 16:50:24;;;;;;;2.10;1.90;;;;;;;14.22;39.66;101091.30;220165;1260;139387;-69
2023/05/08 16:55:30;;;;;;;2.20;2.00;;;;;;;14.10;39.74;101091.44;220177;1257;139448;-69
2023/05/08 17:00:35;;;;;;;1.70;1.50;;;;;;;13.86;39.86;101088.02;218766;1257;138861;-69
2023/05/08 17:05:40;;;;;;;2.60;2.40;;;;;;;13.67;39.89;101094.29;217751;1257;138767;-67
2023/05/08 17:10:44;;;;;;;3.90;3.10;;;;;;;13.59;40.37;101089.58;219175;1257;138759;-69
2023/05/08 17:15:48;;;;;;;4.40;2.40;;;;;;;13.55;40.89;101084.05;217590;1257;138986;-68
2023/05/08 17:20:52;;;;;;;2.80;2.50;;;;;;;13.39;40.91;101084.63;218164;1260;139041;-68
2023/05/08 17:25:57;;;;;;;3.80;2.30;;;;;;;13.22;40.85;101085.30;217795;1260;139018;-67
2023/05/08 17:31:01;;;;;;;2.90;2.60;;;;;;;13.11;41.70;101089.99;217318;1261;139856;-69
2023/05/08 17:36:04;;;;;;;2.80;2.60;;;;;;;12.99;42.05;101092.41;218786;1261;139153;-67
2023/05/08 17:41:08;;;;;;;3.60;2.70;;;;;;;12.85;42.39;101091.87;217538;1261;138877;-69
2023/05/08 17:46:11;;;;;;;3.30;2.60;;;;;;;12.66;42.96;101091.61;217955;1260;139278;-71
2023/05/08 17:51:16;;;;;;;3.80;3.30;;;;;;;12.45;42.92;101093.03;217713;1257;139161;-69
2023/05/08 17:56:22;;;;;;;2.80;2.50;;;;;;;12.31;43.57;101096.70;217523;1260;138950;-69
2023/05/08 18:01:25;;;;;;;3.40;3.10;;;;;;;12.13;44.40;101095.14;217891;1258;139396;-69
2023/05/08 18:06:28;;;;;;;3.70;3.40;;;;;;;11.95;45.16;101100.23;218309;1261;138912;-69
2023/05/08 18:11:33;;;;;;;4.00;3.50;;;;;;;11.70;45.65;101105.32;217997;1259;140080;-67
2023/05/08 18:16:36;;;;;;;4.40;3.50;;;;;;;11.48;46.23;101109.41;218399;1260;138867;-68
2023/05/08 18:21:39;;;;;;;4.40;4.00;;;;;;;11.26;46.86;101111.64;217356;1261;245988;-67
2023/05/08 18:26:48;;;;;;;3.70;3.20;;;;;;;11.06;47.28;101121.20;217524;1260;138728;-67
2023/05/08 18:31:54;;;;;;;3.80;2.90;;;;;;;10.85;48.25;101128.56;218223;1262;139874;-68
2023/05/08 18:36:56;;;;;;;3.70;2.80;;;;;;;10.61;49.31;101135.85;218012;1260;138308;-67
2023/05/08 18:42:02;;;;;;;4.60;2.70;;;;;;;10.37;50.13;101134.98;218871;1261;139302;-68
2023/05/08 18:47:06;;;;;;;3.70;2.40;;;;;;;10.12;50.69;101140.02;219796;1257;139170;-67
2023/05/08 18:52:11;;;;;;;7.70;3.00;;;;;;;9.87;51.16;101143.14;218477;1256;138771;-68
2023/05/08 18:57:13;;;;;;;2.70;2.50;;;;;;;9.59;51.77;101148.11;220599;1257;140056;-68
2023/05/08 19:02:16;;;;;;;3.00;2.80;;;;;;;9.36;52.21;101153.84;219609;1257;139544;-68
2023/05/08 19:07:22;;;;;;;3.70;2.80;;;;;;;9.16;53.24;101154.04;218835;1257;138955;-68
2023/05/08 19:12:27;;;;;;;3.20;3.00;;;;;;;8.91;53.50;101158.66;217845;1259;139754;-67
2023/05/08 19:17:30;;;;;;;2.20;2.10;;;;;;;8.60;53.91;101154.52;219389;1255;138963;-68
2023/05/08 19:22:34;;;;;;;3.10;2.80;;;;;;;8.33;54.93;101156.14;218075;1257;138714;-67
2023/05/08 19:27:39;;;;;;;12.00;3.30;;;;;;;8.09;55.22;101159.41;217791;1256;138287;-67
2023/05/08 19:32:43;;;;;;;3.50;3.00;;;;;;;7.91;56.15;101159.31;217990;1259;138795;-67
2023/05/08 19:37:52;;;;;;;3.60;3.30;;;;;;;7.71;56.67;101158.98;218082;1256;139255;-67
2023/05/08 19:42:56;;;;;;;4.50;3.60;;;;;;;7.59;57.29;101155.67;217864;1257;138802;-67
2023/05/08 19:48:02;;;;;;;4.10;3.50;;;;;;;7.41;57.29;101157.08;218261;1259;140413;-67
2023/05/08 19:53:14;;;;;;;3.60;3.00;;;;;;;7.11;58.12;101161.96;219017;1257;139325;-68
2023/05/08 19:58:18;;;;;;;7.70;4.10;;;;;;;6.83;58.07;101161.70;217867;1257;138877;-67
2023/05/08 20:03:21;;;;;;;15.30;7.70;;;;;;;6.60;58.70;101158.16;218092;1257;138671;-67
2023/05/08 20:08:26;;;;;;;7.80;5.60;;;;;;;6.44;59.43;101154.33;218070;1258;138830;-66
2023/05/08 20:13:30;;;;;;;10.70;6.90;;;;;;;6.33;59.92;101150.95;218050;1257;138481;-66
2023/05/08 20:18:34;;;;;;;15.30;11.80;;;;;;;6.15;59.87;101149.83;218883;1257;139508;-67
2023/05/08 20:23:39;;;;;;;24.80;14.20;;;;;;;5.93;60.39;101149.16;217763;1259;138705;-64
2023/05/08 20:28:43;;;;;;;23.30;15.70;;;;;;;5.76;61.13;101151.20;219462;1257;139230;-65
2023/05/08 20:33:46;;;;;;;36.50;19.70;;;;;;;5.60;61.03;101148.15;218656;1259;140974;-66
2023/05/08 20:38:50;;;;;;;30.20;22.10;;;;;;;5.57;61.95;101141.38;220482;1257;139782;-69
2023/05/08 20:43:52;;;;;;;30.00;20.30;;;;;;;5.55;62.08;101145.31;220582;1257;138735;-67
2023/05/08 20:48:58;;;;;;;29.70;20.00;;;;;;;5.50;62.17;101143.67;219312;1257;139557;-65
2023/05/08 20:54:05;;;;;;;32.30;20.00;;;;;;;5.32;62.09;101145.70;218357;1257;139370;-67
2023/05/08 20:59:09;;;;;;;30.40;16.40;;;;;;;5.14;62.40;101146.12;219409;1256;138788;-70
2023/05/08 21:04:12;;;;;;;27.10;16.30;;;;;;;5.05;63.23;101146.07;218384;1259;139340;-68
2023/05/08 21:09:16;;;;;;;25.30;14.30;;;;;;;4.93;63.38;101143.25;218934;1257;139702;-69
2023/05/08 21:14:20;;;;;;;22.00;14.30;;;;;;;4.75;63.72;101139.23;218754;1256;139795;-69
2023/05/08 21:19:24;;;;;;;24.70;16.30;;;;;;;4.64;64.15;101140.42;217935;1259;140247;-69
2023/05/08 21:24:28;;;;;;;19.30;13.30;;;;;;;4.54;64.72;101140.95;218958;1259;140010;-70
2023/05/08 21:29:32;;;;;;;28.30;16.20;;;;;;;4.44;65.00;101136.39;217988;1257;139158;-67
2023/05/08 21:34:35;;;;;;;24.70;16.80;;;;;;;4.38;65.29;101130.13;217863;1259;139478;-67
2023/05/08 21:39:42;;;;;;;24.90;15.30;;;;;;;4.28;65.29;101126.73;217880;1257;142348;-66
2023/05/08 21:44:46;;;;;;;18.30;13.70;;;;;;;4.15;65.61;101124.64;218295;1259;138894;-67
2023/05/08 21:49:48;;;;;;;22.40;14.90;;;;;;;4.01;65.95;101122.16;218296;1259;139566;-66
2023/05/08 21:54:53;;;;;;;23.80;15.70;;;;;;;3.95;66.33;101119.52;217841;1257;140104;-65
2023/05/08 21:59:57;;;;;;;23.10;14.50;;;;;;;3.90;66.57;101115.24;218772;1255;141640;-66
2023/05/08 22:05:02;;;;;;;20.50;13.10;;;;;;;3.87;66.79;101111.76;217992;1258;140170;-64
2023/05/08 22:10:07;;;;;;;21.00;15.00;;;;;;;3.80;67.02;101114.71;218017;1258;139628;-67
2023/05/08 22:15:11;;;;;;;23.50;17.40;;;;;;;3.68;67.03;101116.10;218825;1258;139638;-66
2023/05/08 22:20:32;;;;;;;31.80;24.90;;;;;;;3.61;67.36;101119.11;219299;1257;139854;-67
2023/05/08 22:25:34;;;;;;;30.00;20.80;;;;;;;3.58;67.69;101119.55;218440;1259;139740;-67
2023/05/08 22:30:37;;;;;;;30.00;20.30;;;;;;;3.53;67.73;101115.02;218971;1260;140005;-66
2023/05/08 22:35:39;;;;;;;21.00;14.60;;;;;;;3.45;67.82;101113.33;220501;1256;140727;-64
2023/05/08 22:40:42;;;;;;;28.20;16.80;;;;;;;3.38;68.14;101111.89;219399;1257;139702;-64
2023/05/08 22:45:44;;;;;;;27.30;16.00;;;;;;;3.31;68.21;101108.83;220171;1258;140699;-65
2023/05/08 22:50:48;;;;;;;24.10;17.00;;;;;;;3.24;68.23;101111.47;219390;1257;140090;-65
2023/05/08 22:55:51;;;;;;;25.90;16.00;;;;;;;3.21;68.66;101107.36;218120;1259;140730;-64
2023/05/08 23:00:54;;;;;;;24.70;15.00;;;;;;;3.19;68.87;101111.45;218919;1260;152511;-65
2023/05/08 23:05:58;;;;;;;19.00;13.70;;;;;;;3.13;69.02;101108.84;219237;1257;141497;-65
2023/05/08 23:11:02;;;;;;;27.20;15.90;;;;;;;3.04;68.99;101106.48;217809;1259;140766;-66